Time;durP1;ratioP1;P1;durP2;ratioP2;P2;SDS_P1;SDS_P2;PMS_P1;PMS_P2;Temp;Humidity;BMP_temperature;BMP_pressure;BME280_temperature;BME280_humidity;BME280_pressure;Samples;Min_cycle;Max_cycle;Signal;HPM_P1;HPM_P2
2020/12/05 00:00:21;;;;;;;38.58;27.13;;;2.70;81.10;;;;;;5112251;28;20045;-58
2020/12/05 00:02:49;;;;;;;40.15;28.05;;;2.60;81.50;;;;;;5095586;28;20043;-59
2020/12/05 00:05:14;;;;;;;37.45;26.55;;;2.50;81.70;;;;;;5113118;28;20601;-60
2020/12/05 00:07:41;;;;;;;36.55;26.25;;;2.60;81.60;;;;;;5112581;28;20032;-60
2020/12/05 00:10:06;;;;;;;41.95;27.83;;;2.60;81.40;;;;;;5112431;28;20024;-58
2020/12/05 00:12:32;;;;;;;36.22;26.02;;;2.60;81.90;;;;;;5112082;28;20118;-59
2020/12/05 00:14:58;;;;;;;42.92;28.35;;;2.60;81.90;;;;;;5112191;28;20027;-59
2020/12/05 00:17:23;;;;;;;43.17;27.98;;;2.70;81.80;;;;;;5112123;28;20225;-60
2020/12/05 00:19:49;;;;;;;39.58;27.10;;;2.60;82.40;;;;;;5112088;28;20044;-59
2020/12/05 00:22:14;;;;;;;46.72;29.65;;;2.60;82.40;;;;;;5112078;28;20031;-60
2020/12/05 00:24:40;;;;;;;38.25;27.13;;;2.70;82.10;;;;;;5112169;28;20066;-59
2020/12/05 00:27:05;;;;;;;40.45;27.02;;;2.70;81.70;;;;;;5112784;28;20027;-59
2020/12/05 00:29:31;;;;;;;39.50;26.00;;;2.70;82.50;;;;;;5113284;28;20587;-59
2020/12/05 00:31:56;;;;;;;37.10;26.30;;;2.70;82.00;;;;;;5113398;28;20039;-60
2020/12/05 00:34:22;;;;;;;40.45;27.42;;;2.80;81.50;;;;;;5113122;28;20028;-60
2020/12/05 00:36:47;;;;;;;40.13;27.58;;;2.90;81.00;;;;;;5112954;28;20115;-60
2020/12/05 00:39:13;;;;;;;36.88;24.70;;;2.90;80.90;;;;;;5112895;28;20024;-59
2020/12/05 00:41:39;;;;;;;35.75;26.40;;;2.90;80.70;;;;;;5111959;28;20097;-59
2020/12/05 00:44:05;;;;;;;39.00;27.63;;;3.00;80.50;;;;;;5111474;28;20509;-62
2020/12/05 00:46:30;;;;;;;36.53;26.63;;;3.10;80.10;;;;;;5111990;28;20168;-62
2020/12/05 00:48:56;;;;;;;38.92;27.30;;;3.00;80.00;;;;;;5109808;28;20112;-61
2020/12/05 00:51:21;;;;;;;40.03;27.08;;;3.10;80.10;;;;;;5110660;28;20043;-61
2020/12/05 00:53:55;;;;;;;41.20;27.73;;;3.10;79.70;;;;;;5110298;28;20058;-62
2020/12/05 00:56:21;;;;;;;38.97;27.30;;;3.10;79.70;;;;;;5110344;28;20040;-62
2020/12/05 00:58:47;;;;;;;38.85;26.42;;;3.20;79.50;;;;;;5092058;28;20027;-63
2020/12/05 01:01:14;;;;;;;38.47;25.65;;;3.20;79.50;;;;;;5092357;28;20103;-62
2020/12/05 01:03:40;;;;;;;36.08;25.23;;;3.20;79.50;;;;;;5110526;28;20093;-63
2020/12/05 01:06:21;;;;;;;41.45;27.55;;;3.20;79.60;;;;;;5111000;28;20031;-61
2020/12/05 01:08:46;;;;;;;34.58;25.40;;;3.20;79.60;;;;;;5092513;28;20040;-60
2020/12/05 01:11:13;;;;;;;39.05;26.48;;;3.20;79.60;;;;;;5114018;28;20053;-61
2020/12/05 01:13:39;;;;;;;40.90;26.80;;;3.20;79.90;;;;;;5115078;28;20396;-62
2020/12/05 01:16:05;;;;;;;44.60;28.67;;;3.40;86.30;;;;;;5096808;28;20046;-60
2020/12/05 01:18:30;;;;;;;35.55;26.58;;;3.60;85.20;;;;;;5114898;28;20035;-62
2020/12/05 01:20:56;;;;;;;41.10;27.92;;;3.80;82.70;;;;;;5115031;28;20028;-65
2020/12/05 01:23:22;;;;;;;40.13;26.95;;;3.80;79.60;;;;;;5114584;28;20027;-65
2020/12/05 01:25:47;;;;;;;36.88;25.52;;;4.00;81.80;;;;;;5096719;28;20024;-62
2020/12/05 01:28:13;;;;;;;39.00;27.67;;;4.20;81.50;;;;;;5114411;28;20044;-61
2020/12/05 01:30:39;;;;;;;37.88;26.25;;;4.20;77.50;;;;;;5115060;28;20039;-61
2020/12/05 01:33:04;;;;;;;39.17;27.98;;;4.10;77.30;;;;;;5114991;28;20491;-62
2020/12/05 01:35:30;;;;;;;37.75;26.35;;;4.00;77.10;;;;;;5114418;28;20035;-62
2020/12/05 01:37:58;;;;;;;38.05;26.00;;;3.90;77.00;;;;;;5096436;28;20031;-62
2020/12/05 01:40:24;;;;;;;34.38;25.45;;;3.90;77.00;;;;;;5115195;28;20032;-62
2020/12/05 01:42:53;;;;;;;37.10;25.27;;;3.80;77.20;;;;;;5114871;28;20042;-63
2020/12/05 01:45:18;;;;;;;39.15;27.20;;;3.80;77.20;;;;;;5114702;28;20023;-62
2020/12/05 01:47:46;;;;;;;34.95;24.92;;;3.70;77.50;;;;;;5114810;28;20554;-62
2020/12/05 01:50:12;;;;;;;38.05;27.25;;;3.60;77.70;;;;;;5114807;28;20028;-62
2020/12/05 01:52:38;;;;;;;41.15;28.10;;;3.60;77.70;;;;;;5097581;28;20038;-61
2020/12/05 01:55:06;;;;;;;38.50;26.48;;;3.60;77.90;;;;;;5121488;28;20023;-61
2020/12/05 01:57:31;;;;;;;39.42;27.02;;;3.50;78.00;;;;;;5114891;28;20032;-61
2020/12/05 01:59:57;;;;;;;39.08;26.90;;;3.50;78.10;;;;;;5114488;28;20088;-62
2020/12/05 02:02:23;;;;;;;39.97;26.45;;;3.50;78.30;;;;;;5114462;28;20031;-60
2020/12/05 02:07:42;;;;;;;36.15;24.65;;;3.40;78.50;;;;;;5052466;28;20049;-57
2020/12/05 02:10:09;;;;;;;35.05;24.85;;;3.40;78.50;;;;;;5036046;28;20029;-53
2020/12/05 02:12:47;;;;;;;38.88;25.95;;;3.40;78.60;;;;;;5033556;28;20025;-54
2020/12/05 02:15:18;;;;;;;42.53;28.05;;;3.40;78.80;;;;;;5035366;28;20091;-56
2020/12/05 02:18:02;;;;;;;39.67;27.58;;;3.30;79.00;;;;;;5024825;28;20057;-60
2020/12/05 02:20:29;;;;;;;40.85;26.77;;;3.20;79.70;;;;;;5049576;28;20041;-58
2020/12/05 02:23:04;;;;;;;41.72;26.70;;;3.20;79.70;;;;;;5025144;28;20029;-57
2020/12/05 02:25:30;;;;;;;38.15;25.95;;;3.20;79.70;;;;;;5024937;28;20112;-60
2020/12/05 02:27:58;;;;;;;39.50;27.13;;;3.30;79.50;;;;;;5040489;28;20040;-57
2020/12/05 02:30:23;;;;;;;42.75;27.05;;;3.30;79.30;;;;;;5008746;28;20071;-58
2020/12/05 02:32:49;;;;;;;40.20;26.63;;;3.40;79.20;;;;;;5023399;28;20065;-56
2020/12/05 02:35:14;;;;;;;37.60;25.52;;;3.40;79.10;;;;;;5025880;28;20038;-59
2020/12/05 02:37:43;;;;;;;39.00;26.52;;;3.40;79.30;;;;;;5009246;28;20129;-56
2020/12/05 02:40:10;;;;;;;38.17;26.77;;;3.40;78.90;;;;;;5034383;28;20033;-53
2020/12/05 02:42:36;;;;;;;38.65;26.63;;;3.40;79.00;;;;;;5034683;28;20124;-56
2020/12/05 02:45:01;;;;;;;39.08;27.17;;;3.40;79.70;;;;;;5034614;28;20171;-56
2020/12/05 02:47:27;;;;;;;38.78;27.00;;;3.40;79.20;;;;;;5048876;28;20167;-55
2020/12/05 02:49:53;;;;;;;39.58;25.85;;;3.30;79.10;;;;;;5015782;28;20040;-56
2020/12/05 02:52:18;;;;;;;37.08;26.42;;;3.40;78.90;;;;;;5017878;28;20034;-58
2020/12/05 02:54:44;;;;;;;35.50;25.35;;;3.30;79.10;;;;;;5001539;28;20120;-56
2020/12/05 02:57:10;;;;;;;40.20;26.42;;;3.40;79.00;;;;;;5019263;28;20021;-58
2020/12/05 02:59:35;;;;;;;38.85;26.50;;;3.40;78.80;;;;;;5033658;28;20196;-58
2020/12/05 03:02:01;;;;;;;40.20;27.73;;;3.40;78.90;;;;;;5033521;28;20368;-58
2020/12/05 03:04:27;;;;;;;43.33;28.60;;;3.40;78.70;;;;;;5031450;28;20441;-59
2020/12/05 03:06:53;;;;;;;39.13;26.50;;;3.50;78.20;;;;;;5032444;28;20069;-56
2020/12/05 03:09:18;;;;;;;40.05;27.42;;;3.30;78.90;;;;;;5031578;28;20026;-55
2020/12/05 03:11:44;;;;;;;39.38;25.88;;;3.40;78.90;;;;;;5032689;28;20120;-57
2020/12/05 03:14:10;;;;;;;36.33;26.02;;;3.40;78.80;;;;;;5032145;28;20033;-60
2020/12/05 03:16:35;;;;;;;40.55;26.98;;;3.30;79.00;;;;;;5037909;28;20047;-57
2020/12/05 03:19:01;;;;;;;37.70;25.08;;;3.30;79.20;;;;;;5048931;28;20037;-56
2020/12/05 03:21:27;;;;;;;40.22;26.00;;;3.20;79.30;;;;;;5021326;28;20083;-61
2020/12/05 03:23:53;;;;;;;42.38;27.60;;;3.30;79.30;;;;;;5047409;28;20439;-56
2020/12/05 03:26:19;;;;;;;39.95;26.80;;;3.30;79.00;;;;;;5051879;28;20041;-58
2020/12/05 03:28:44;;;;;;;41.85;28.65;;;3.20;79.70;;;;;;5018166;28;20045;-56
2020/12/05 03:31:22;;;;;;;43.75;27.23;;;3.10;80.30;;;;;;5052112;28;20423;-53
2020/12/05 03:33:47;;;;;;;39.92;27.00;;;3.00;80.70;;;;;;5050211;28;20056;-59
2020/12/05 03:36:13;;;;;;;42.20;27.13;;;2.90;81.10;;;;;;5051302;28;20634;-59
2020/12/05 03:38:38;;;;;;;40.97;27.08;;;3.00;80.70;;;;;;5034292;28;20135;-58
2020/12/05 03:41:04;;;;;;;53.95;33.75;;;3.00;80.80;;;;;;5034351;28;20037;-57
2020/12/05 03:43:29;;;;;;;44.65;28.85;;;2.80;81.30;;;;;;5034029;28;20042;-57
2020/12/05 03:45:55;;;;;;;41.95;29.65;;;2.80;81.10;;;;;;5051452;28;20036;-57
2020/12/05 03:48:21;;;;;;;42.53;27.50;;;2.90;81.10;;;;;;5006515;28;20044;-57
2020/12/05 03:50:47;;;;;;;41.70;28.23;;;3.00;80.80;;;;;;4998363;28;20037;-55
2020/12/05 03:53:12;;;;;;;39.72;25.40;;;3.00;80.50;;;;;;5032036;28;20060;-58
2020/12/05 03:55:38;;;;;;;39.53;26.40;;;3.00;80.40;;;;;;5024664;28;20033;-55
2020/12/05 03:58:04;;;;;;;39.10;26.75;;;3.10;80.00;;;;;;5017364;28;20517;-57
2020/12/05 04:00:29;;;;;;;46.10;30.25;;;3.20;79.60;;;;;;5052166;28;20033;-58
2020/12/05 04:02:55;;;;;;;43.08;27.52;;;3.20;79.70;;;;;;5034109;28;20499;-57
2020/12/05 04:05:20;;;;;;;43.08;26.58;;;3.10;80.00;;;;;;5051586;28;20360;-58
2020/12/05 04:07:46;;;;;;;41.00;27.27;;;3.20;80.00;;;;;;5034256;28;20140;-55
2020/12/05 04:10:11;;;;;;;37.30;24.85;;;3.20;79.70;;;;;;5051859;28;20044;-61
2020/12/05 04:12:37;;;;;;;39.22;26.73;;;3.20;80.00;;;;;;5051608;28;20577;-62
2020/12/05 04:15:03;;;;;;;39.72;26.33;;;3.00;80.00;;;;;;5051267;28;20194;-61
2020/12/05 04:17:29;;;;;;;39.38;26.48;;;2.90;81.00;;;;;;5051470;28;20064;-61
2020/12/05 04:19:55;;;;;;;37.60;25.50;;;2.90;80.90;;;;;;5051754;28;20037;-60
2020/12/05 04:22:20;;;;;;;41.10;26.67;;;3.00;80.40;;;;;;5033618;28;20063;-61
2020/12/05 04:24:46;;;;;;;40.53;26.40;;;2.90;80.40;;;;;;5019582;28;20124;-61
2020/12/05 04:27:12;;;;;;;41.03;27.13;;;2.80;81.30;;;;;;5031467;28;20037;-61
2020/12/05 04:29:37;;;;;;;41.03;27.73;;;2.70;81.20;;;;;;5031719;28;20084;-60
2020/12/05 04:32:05;;;;;;;37.33;25.67;;;2.60;81.60;;;;;;5031207;28;20597;-61
2020/12/05 04:34:31;;;;;;;39.65;27.38;;;2.60;81.50;;;;;;5032190;28;20029;-61
2020/12/05 04:36:57;;;;;;;39.53;27.77;;;2.70;80.70;;;;;;5026930;28;20043;-60
2020/12/05 04:39:22;;;;;;;39.80;27.08;;;2.70;81.20;;;;;;5051231;28;20037;-60
2020/12/05 04:41:48;;;;;;;39.33;26.67;;;2.70;81.10;;;;;;5051522;28;20029;-61
2020/12/05 04:44:14;;;;;;;38.85;26.77;;;2.60;81.10;;;;;;5051137;28;20475;-60
2020/12/05 04:46:41;;;;;;;40.97;27.70;;;2.70;81.30;;;;;;5036279;28;20037;-61
2020/12/05 04:49:08;;;;;;;39.58;26.33;;;2.60;81.10;;;;;;5055527;28;20087;-61
2020/12/05 04:51:37;;;;;;;39.20;26.52;;;2.60;81.30;;;;;;5037996;28;20084;-61
2020/12/05 04:54:05;;;;;;;42.80;27.77;;;2.50;81.50;;;;;;5037323;28;20037;-61
2020/12/05 04:56:38;;;;;;;41.13;26.33;;;2.50;81.70;;;;;;5037362;28;20060;-62
2020/12/05 04:59:09;;;;;;;57.13;35.05;;;2.60;81.50;;;;;;5034749;28;20499;-62
2020/12/05 05:01:36;;;;;;;41.80;29.35;;;2.60;81.30;;;;;;5017490;28;20068;-61
2020/12/05 05:04:04;;;;;;;42.05;27.80;;;2.60;81.50;;;;;;5035247;28;20065;-61
2020/12/05 05:06:30;;;;;;;40.92;26.60;;;2.50;81.50;;;;;;5017268;28;20037;-61
2020/12/05 05:08:56;;;;;;;38.60;25.38;;;2.60;81.30;;;;;;5035115;28;20030;-61
2020/12/05 05:11:23;;;;;;;38.47;26.63;;;2.60;81.30;;;;;;5035214;28;20401;-61
2020/12/05 05:13:56;;;;;;;39.55;26.45;;;2.70;80.90;;;;;;5034905;28;20055;-60
2020/12/05 05:16:24;;;;;;;40.05;26.02;;;2.70;80.70;;;;;;5034280;28;20062;-62
2020/12/05 05:18:49;;;;;;;40.80;26.35;;;2.70;80.90;;;;;;5015461;28;20048;-61
2020/12/05 05:21:40;;;;;;;40.70;27.13;;;2.70;80.70;;;;;;5034614;28;20108;-61
2020/12/05 05:24:20;;;;;;;41.95;27.25;;;2.70;80.60;;;;;;5034502;28;20045;-60
2020/12/05 05:27:04;;;;;;;42.78;28.92;;;2.20;82.90;;;;;;5034826;28;20188;-60
2020/12/05 05:29:35;;;;;;;48.38;28.35;;;1.90;83.60;;;;;;5034759;28;20033;-62
2020/12/05 05:34:26;;;;;;;44.40;29.20;;;1.70;84.90;;;;;;5034122;28;20044;-59
2020/12/05 05:36:52;;;;;;;44.30;29.25;;;1.80;84.40;;;;;;5046669;28;20033;-60
2020/12/05 05:39:18;;;;;;;44.13;29.50;;;1.90;84.10;;;;;;5054379;28;20484;-62
2020/12/05 05:41:50;;;;;;;42.22;29.20;;;1.90;83.90;;;;;;5054453;28;20033;-62
2020/12/05 05:44:27;;;;;;;42.83;28.35;;;2.00;83.60;;;;;;5054106;28;20128;-62
2020/12/05 05:46:53;;;;;;;43.03;28.88;;;2.10;83.10;;;;;;5037049;28;20506;-62
2020/12/05 05:49:33;;;;;;;39.72;27.70;;;2.10;82.90;;;;;;5054991;28;20487;-61
2020/12/05 05:52:03;;;;;;;41.22;28.10;;;2.20;82.90;;;;;;5054789;28;20398;-60
2020/12/05 05:54:36;;;;;;;42.85;28.52;;;2.20;82.50;;;;;;5053672;28;20064;-62
2020/12/05 05:57:11;;;;;;;42.90;29.30;;;2.30;83.10;;;;;;5036073;28;20056;-61
2020/12/05 05:59:40;;;;;;;42.60;29.50;;;2.40;82.20;;;;;;5035783;28;20494;-59
2020/12/05 06:02:09;;;;;;;40.42;28.42;;;2.40;82.20;;;;;;5036254;28;20075;-60
2020/12/05 06:04:43;;;;;;;42.28;28.27;;;2.50;82.00;;;;;;5053768;28;20124;-62
2020/12/05 06:07:16;;;;;;;47.22;30.67;;;2.50;81.80;;;;;;5020042;28;20037;-64
2020/12/05 06:09:52;;;;;;;42.00;28.50;;;2.50;81.80;;;;;;5054236;28;20040;-61
2020/12/05 06:12:26;;;;;;;42.80;28.85;;;2.50;81.80;;;;;;5036595;28;20037;-61
2020/12/05 06:14:54;;;;;;;46.97;30.10;;;2.50;81.80;;;;;;5054367;28;20029;-62
2020/12/05 06:17:21;;;;;;;44.92;29.88;;;2.50;81.90;;;;;;5055231;28;20040;-61
2020/12/05 06:19:49;;;;;;;42.75;29.27;;;2.50;82.10;;;;;;5037388;28;20072;-63
2020/12/05 06:22:36;;;;;;;42.15;29.48;;;2.60;81.60;;;;;;5036816;28;20105;-61
2020/12/05 06:25:08;;;;;;;47.10;31.08;;;2.70;81.30;;;;;;5053978;28;20120;-61
2020/12/05 06:27:37;;;;;;;42.13;28.65;;;2.60;81.20;;;;;;5054405;28;20032;-61
2020/12/05 06:30:12;;;;;;;44.58;29.17;;;2.70;81.20;;;;;;5053829;28;20029;-61
2020/12/05 06:32:56;;;;;;;45.08;30.27;;;2.70;81.30;;;;;;5036276;28;20068;-60
2020/12/05 06:35:22;;;;;;;46.17;30.30;;;2.60;81.70;;;;;;5052897;28;20029;-60
2020/12/05 06:37:52;;;;;;;44.40;30.63;;;2.60;81.80;;;;;;5053476;28;20036;-61
2020/12/05 06:40:19;;;;;;;43.22;29.50;;;2.60;81.50;;;;;;5034279;28;20041;-60
2020/12/05 06:42:50;;;;;;;43.65;30.20;;;2.60;81.70;;;;;;5033319;28;20022;-61
2020/12/05 06:45:27;;;;;;;40.92;28.23;;;2.60;81.40;;;;;;5032796;28;20033;-61
2020/12/05 06:48:16;;;;;;;44.92;29.33;;;2.70;81.30;;;;;;5039723;28;20032;-61
2020/12/05 06:50:43;;;;;;;46.78;30.30;;;2.70;81.10;;;;;;5052974;28;20108;-61
2020/12/05 06:53:21;;;;;;;43.20;30.15;;;2.70;80.90;;;;;;5044815;28;20037;-63
2020/12/05 06:55:51;;;;;;;48.10;31.58;;;2.80;80.70;;;;;;5047856;28;20526;-62
2020/12/05 06:58:30;;;;;;;46.33;31.63;;;2.70;80.80;;;;;;5038704;28;20037;-61
2020/12/05 07:00:58;;;;;;;49.42;31.75;;;2.70;81.30;;;;;;5054000;28;20039;-62
2020/12/05 07:03:29;;;;;;;42.88;30.58;;;2.70;81.10;;;;;;5035635;28;20040;-61
2020/12/05 07:05:56;;;;;;;45.50;31.20;;;2.70;81.20;;;;;;5054236;28;20116;-61
2020/12/05 07:08:31;;;;;;;42.40;30.52;;;2.70;81.20;;;;;;5043965;28;20179;-60
2020/12/05 07:11:07;;;;;;;49.10;31.52;;;2.70;81.40;;;;;;5015628;28;20029;-62
2020/12/05 07:13:48;;;;;;;85.72;50.13;;;2.70;81.10;;;;;;5024706;28;20041;-60
2020/12/05 07:16:14;;;;;;;52.67;34.53;;;2.70;80.90;;;;;;5052926;28;20025;-62
2020/12/05 07:18:41;;;;;;;43.35;29.48;;;2.70;81.00;;;;;;5037641;28;20088;-61
2020/12/05 07:21:10;;;;;;;44.00;29.55;;;2.70;81.00;;;;;;5032831;28;20121;-61
2020/12/05 07:23:36;;;;;;;43.25;28.50;;;2.70;80.60;;;;;;5024369;28;20257;-61
2020/12/05 07:26:03;;;;;;;47.20;31.88;;;2.80;80.30;;;;;;5032570;28;20041;-62
2020/12/05 07:28:29;;;;;;;50.15;35.10;;;2.80;80.50;;;;;;5032497;28;20487;-62
2020/12/05 07:30:56;;;;;;;50.33;33.03;;;2.90;79.80;;;;;;5021655;28;20392;-61
2020/12/05 07:33:22;;;;;;;41.70;28.45;;;2.90;79.90;;;;;;5034621;28;20064;-61
2020/12/05 07:36:05;;;;;;;39.13;28.55;;;2.90;79.90;;;;;;5032433;28;20025;-61
2020/12/05 07:38:33;;;;;;;43.63;28.58;;;3.00;79.30;;;;;;5052265;28;20559;-61
2020/12/05 07:40:59;;;;;;;45.03;30.13;;;2.80;79.50;;;;;;5045559;28;20495;-61
2020/12/05 07:43:25;;;;;;;41.88;29.88;;;2.80;79.70;;;;;;5032247;28;20040;-61
2020/12/05 07:45:52;;;;;;;41.58;27.63;;;2.80;79.90;;;;;;5018460;28;20403;-61
2020/12/05 07:48:21;;;;;;;38.75;27.05;;;2.70;79.90;;;;;;5041272;28;20537;-61
2020/12/05 07:50:47;;;;;;;40.60;26.92;;;2.80;79.40;;;;;;5014643;28;20136;-62
2020/12/05 07:53:23;;;;;;;39.78;26.85;;;2.80;79.80;;;;;;5032027;28;20034;-62
2020/12/05 07:55:49;;;;;;;38.08;25.48;;;2.70;79.90;;;;;;5043443;28;20064;-62
2020/12/05 07:58:15;;;;;;;39.00;25.85;;;2.80;79.80;;;;;;5051775;28;20032;-62
2020/12/05 08:00:42;;;;;;;39.13;26.58;;;2.90;79.20;;;;;;5048470;28;20108;-60
2020/12/05 08:03:46;;;;;;;39.67;27.25;;;2.80;79.30;;;;;;5033516;28;20415;-62
2020/12/05 08:08:41;;;;;;;43.25;27.13;;;3.10;78.90;;;;;;5073109;22;20378;-61
2020/12/05 08:11:07;;;;;;;42.67;26.55;;;3.20;78.50;;;;;;5044567;28;20116;-57
2020/12/05 08:13:35;;;;;;;38.35;26.10;;;3.20;78.40;;;;;;5032343;28;20125;-61
2020/12/05 08:16:04;;;;;;;38.05;25.30;;;3.20;78.70;;;;;;5020164;28;20049;-59
2020/12/05 08:18:31;;;;;;;39.15;24.52;;;3.20;78.90;;;;;;5070917;28;20115;-61
2020/12/05 08:20:58;;;;;;;38.25;24.77;;;3.20;78.80;;;;;;5070304;28;20028;-60
2020/12/05 08:23:34;;;;;;;36.08;24.98;;;3.30;78.50;;;;;;5069889;28;20449;-60
2020/12/05 08:26:03;;;;;;;37.22;22.95;;;3.20;78.70;;;;;;5056263;28;20040;-62
2020/12/05 08:28:36;;;;;;;36.10;22.08;;;3.30;78.60;;;;;;5071656;28;20032;-62
2020/12/05 08:31:07;;;;;;;34.92;22.88;;;3.40;78.00;;;;;;5049256;28;20033;-61
2020/12/05 08:33:41;;;;;;;36.58;21.95;;;3.50;77.80;;;;;;5051555;28;20033;-63
2020/12/05 08:36:15;;;;;;;31.88;21.35;;;3.70;77.30;;;;;;5053057;28;20032;-62
2020/12/05 08:38:42;;;;;;;31.27;20.17;;;3.80;76.60;;;;;;5051788;28;20037;-61
2020/12/05 08:41:07;;;;;;;33.00;21.27;;;3.90;75.90;;;;;;5055866;28;20036;-62
2020/12/05 08:43:34;;;;;;;33.72;20.80;;;4.10;75.70;;;;;;5071887;28;20044;-61
2020/12/05 08:45:59;;;;;;;28.38;19.52;;;4.20;74.80;;;;;;5069189;28;20121;-59
2020/12/05 08:48:25;;;;;;;26.88;18.38;;;4.40;74.50;;;;;;5063771;28;20127;-53
2020/12/05 08:50:51;;;;;;;29.15;18.77;;;4.40;74.00;;;;;;5071279;28;20037;-59
2020/12/05 08:53:21;;;;;;;31.88;20.25;;;4.50;73.70;;;;;;5071715;28;20028;-62
2020/12/05 08:55:48;;;;;;;28.05;20.25;;;4.60;74.10;;;;;;5071486;28;20020;-63
2020/12/05 08:58:14;;;;;;;31.30;20.60;;;4.60;74.00;;;;;;5052514;28;20059;-59
2020/12/05 09:00:40;;;;;;;27.80;19.08;;;4.60;74.00;;;;;;5051668;28;20043;-59
2020/12/05 09:03:20;;;;;;;29.83;18.80;;;4.60;74.00;;;;;;5069786;28;20049;-62
2020/12/05 09:05:47;;;;;;;29.52;19.08;;;4.60;74.40;;;;;;5071326;28;20064;-62
2020/12/05 09:08:18;;;;;;;30.55;19.23;;;4.60;74.60;;;;;;5037107;28;20091;-57
2020/12/05 09:10:43;;;;;;;28.40;18.30;;;4.50;75.10;;;;;;5071818;28;20510;-61
2020/12/05 09:13:09;;;;;;;28.63;18.45;;;4.60;75.30;;;;;;5070445;28;20037;-59
2020/12/05 09:15:37;;;;;;;28.10;16.90;;;4.60;74.90;;;;;;5071253;28;20549;-58
2020/12/05 09:18:03;;;;;;;26.95;17.20;;;4.60;74.40;;;;;;5054906;28;20036;-61
2020/12/05 09:20:29;;;;;;;25.75;17.85;;;4.70;74.40;;;;;;5034015;28;20029;-58
2020/12/05 09:22:59;;;;;;;27.02;17.35;;;4.80;74.10;;;;;;5065922;28;20036;-61
2020/12/05 09:25:35;;;;;;;26.40;17.38;;;4.80;73.70;;;;;;5052017;28;20039;-60
2020/12/05 09:28:07;;;;;;;26.38;17.90;;;4.90;73.80;;;;;;5051530;28;20086;-63
2020/12/05 09:30:32;;;;;;;28.15;18.23;;;4.90;73.80;;;;;;5051520;28;20048;-62
2020/12/05 09:32:58;;;;;;;25.65;17.55;;;4.80;73.90;;;;;;5055057;28;20033;-60
2020/12/05 09:35:27;;;;;;;25.88;17.00;;;4.80;73.80;;;;;;5055409;28;20025;-61
2020/12/05 09:37:53;;;;;;;26.90;17.80;;;4.80;73.80;;;;;;5061683;28;20044;-60
2020/12/05 09:40:20;;;;;;;27.52;18.58;;;4.80;73.90;;;;;;5054889;28;20028;-60
2020/12/05 09:42:47;;;;;;;26.92;18.75;;;4.80;73.60;;;;;;5065508;28;20048;-60
2020/12/05 09:45:13;;;;;;;26.35;17.58;;;4.80;73.40;;;;;;5074653;28;20036;-60
2020/12/05 09:47:40;;;;;;;28.25;19.17;;;4.80;73.20;;;;;;5070360;28;20040;-58
2020/12/05 09:50:06;;;;;;;30.27;20.15;;;4.80;72.90;;;;;;5074690;28;20559;-59
2020/12/05 09:52:32;;;;;;;27.55;19.23;;;4.70;73.20;;;;;;5067634;28;20033;-58
2020/12/05 09:54:58;;;;;;;26.65;18.30;;;4.70;73.40;;;;;;5020598;28;20450;-58
2020/12/05 09:57:24;;;;;;;31.65;20.48;;;4.70;73.20;;;;;;5055289;28;20098;-60
2020/12/05 09:59:49;;;;;;;29.80;19.90;;;4.60;73.60;;;;;;5054837;28;20029;-62
2020/12/05 10:02:15;;;;;;;31.58;20.60;;;4.60;73.60;;;;;;5058676;28;20135;-61
2020/12/05 10:04:40;;;;;;;32.50;20.25;;;4.60;73.70;;;;;;5056129;28;20059;-59
2020/12/05 10:07:07;;;;;;;31.75;21.20;;;4.60;73.80;;;;;;5072625;28;20068;-60
2020/12/05 10:09:33;;;;;;;30.88;20.83;;;4.60;73.40;;;;;;5074548;28;20119;-57
2020/12/05 10:11:59;;;;;;;28.63;20.10;;;4.60;73.30;;;;;;5071589;28;20116;-62
2020/12/05 10:14:24;;;;;;;29.83;21.08;;;4.60;73.20;;;;;;5075587;28;20143;-60
2020/12/05 10:16:50;;;;;;;28.80;19.23;;;4.70;73.20;;;;;;5071849;28;20352;-59
2020/12/05 10:19:17;;;;;;;28.35;19.25;;;4.60;73.30;;;;;;5055650;28;20037;-62
2020/12/05 10:21:48;;;;;;;36.20;22.38;;;4.80;72.90;;;;;;5057348;28;20028;-58
2020/12/05 10:24:15;;;;;;;31.55;21.30;;;4.80;72.50;;;;;;5065662;28;20037;-61
2020/12/05 10:26:45;;;;;;;33.88;22.45;;;4.90;72.50;;;;;;5054171;28;20095;-61
2020/12/05 10:29:10;;;;;;;35.72;23.17;;;5.10;71.80;;;;;;5053901;28;20565;-60
2020/12/05 10:31:36;;;;;;;33.03;22.17;;;5.20;71.60;;;;;;5036596;28;20044;-59
2020/12/05 10:34:01;;;;;;;34.22;21.83;;;5.40;71.10;;;;;;5073489;28;20098;-59
2020/12/05 10:36:27;;;;;;;30.70;21.52;;;5.40;70.80;;;;;;5064549;28;20040;-57
2020/12/05 10:38:52;;;;;;;30.88;21.30;;;5.50;70.40;;;;;;5072172;28;20479;-61
2020/12/05 10:41:18;;;;;;;32.65;23.23;;;5.50;69.90;;;;;;5072822;28;20106;-60
2020/12/05 10:43:44;;;;;;;31.45;22.40;;;5.50;70.20;;;;;;5053862;28;20041;-61
2020/12/05 10:46:09;;;;;;;34.30;22.25;;;5.40;70.20;;;;;;5055875;28;20071;-61
2020/12/05 10:48:35;;;;;;;32.40;22.63;;;5.20;71.00;;;;;;5071320;28;20043;-58
2020/12/05 10:51:01;;;;;;;34.30;22.77;;;5.10;71.80;;;;;;5074019;28;20061;-61
2020/12/05 10:53:27;;;;;;;33.88;22.13;;;5.10;71.80;;;;;;5072410;28;20115;-57
2020/12/05 10:55:53;;;;;;;33.42;22.77;;;5.00;72.10;;;;;;5073169;28;20533;-62
2020/12/05 10:58:19;;;;;;;35.20;23.15;;;5.10;72.10;;;;;;5043294;28;20496;-59
2020/12/05 11:00:47;;;;;;;34.17;22.95;;;5.20;71.90;;;;;;5053134;28;20492;-59
2020/12/05 11:03:13;;;;;;;32.28;22.35;;;5.20;71.70;;;;;;5063660;28;20131;-60
2020/12/05 11:05:38;;;;;;;31.33;22.33;;;5.20;71.70;;;;;;5072822;28;20040;-59
2020/12/05 11:08:04;;;;;;;32.85;21.45;;;5.30;71.70;;;;;;5053885;28;20494;-59
2020/12/05 11:10:29;;;;;;;31.48;21.52;;;5.40;70.90;;;;;;5040986;28;20459;-58
2020/12/05 11:12:55;;;;;;;31.48;22.20;;;5.50;70.40;;;;;;5043815;28;20067;-62
2020/12/05 11:15:21;;;;;;;31.50;21.23;;;5.50;70.20;;;;;;5043222;28;20492;-60
2020/12/05 11:17:46;;;;;;;34.13;23.08;;;5.50;70.20;;;;;;5053543;28;20050;-58
2020/12/05 11:20:12;;;;;;;32.05;21.83;;;5.40;70.40;;;;;;5043286;28;20322;-59
2020/12/05 11:22:38;;;;;;;33.95;22.42;;;5.40;71.00;;;;;;5056104;28;20039;-58
2020/12/05 11:25:03;;;;;;;33.30;23.00;;;5.40;70.70;;;;;;5054429;28;20025;-61
2020/12/05 11:27:29;;;;;;;35.65;24.50;;;5.50;70.60;;;;;;5056424;28;20541;-61
2020/12/05 11:29:55;;;;;;;30.38;21.17;;;5.40;70.60;;;;;;5041616;28;20025;-61
2020/12/05 11:32:20;;;;;;;30.27;21.83;;;5.60;70.40;;;;;;5051795;28;20049;-61
2020/12/05 11:34:46;;;;;;;31.90;23.20;;;5.60;70.20;;;;;;5042581;28;20495;-59
2020/12/05 11:37:11;;;;;;;33.92;21.88;;;5.50;70.60;;;;;;5053244;28;20428;-58
2020/12/05 11:39:37;;;;;;;31.63;21.65;;;5.40;70.90;;;;;;5036321;28;20083;-62
2020/12/05 11:42:02;;;;;;;31.95;22.33;;;5.50;70.80;;;;;;5066175;28;20033;-61
2020/12/05 11:44:28;;;;;;;35.75;22.08;;;5.60;70.40;;;;;;5054264;28;20024;-61
2020/12/05 11:46:53;;;;;;;35.28;23.35;;;5.70;69.50;;;;;;5058464;28;20036;-61
2020/12/05 11:49:19;;;;;;;31.45;23.00;;;5.80;69.50;;;;;;5058062;28;20044;-60
2020/12/05 11:51:45;;;;;;;34.53;24.65;;;5.80;69.00;;;;;;5037856;28;20447;-59
2020/12/05 11:54:10;;;;;;;31.52;22.77;;;5.80;69.00;;;;;;5071910;28;20398;-58
2020/12/05 11:56:38;;;;;;;31.60;22.17;;;5.80;69.20;;;;;;5052707;28;20382;-60
2020/12/05 11:59:04;;;;;;;30.65;21.77;;;5.70;69.20;;;;;;5052308;28;20051;-58
2020/12/05 12:01:29;;;;;;;29.70;21.52;;;5.80;69.10;;;;;;5052376;28;20041;-60
2020/12/05 12:03:55;;;;;;;30.27;21.90;;;5.90;68.70;;;;;;5034591;28;20043;-61
2020/12/05 12:06:20;;;;;;;33.85;21.70;;;5.70;69.10;;;;;;5052007;28;20495;-62
2020/12/05 12:08:47;;;;;;;33.08;22.88;;;5.70;69.10;;;;;;5052926;28;20494;-60
2020/12/05 12:11:20;;;;;;;41.05;24.23;;;5.80;69.00;;;;;;5051750;28;20035;-60
2020/12/05 12:13:46;;;;;;;36.53;24.48;;;5.80;68.80;;;;;;5069025;28;20652;-57
2020/12/05 12:16:13;;;;;;;41.30;25.92;;;5.70;69.00;;;;;;5071971;28;20071;-63
2020/12/05 12:18:39;;;;;;;39.10;25.17;;;5.60;68.90;;;;;;5038059;28;20040;-63
2020/12/05 12:21:05;;;;;;;40.10;25.60;;;5.60;69.20;;;;;;5050710;28;20041;-58
2020/12/05 12:23:31;;;;;;;37.70;25.20;;;5.60;69.00;;;;;;5052782;28;20104;-59
2020/12/05 12:25:56;;;;;;;38.55;25.10;;;5.60;69.10;;;;;;5051305;28;20387;-58
2020/12/05 12:28:22;;;;;;;35.10;23.50;;;5.60;69.10;;;;;;5052099;28;20143;-59
2020/12/05 12:30:48;;;;;;;32.90;22.65;;;5.50;69.50;;;;;;5052425;28;20037;-61
2020/12/05 12:33:13;;;;;;;32.50;21.55;;;5.40;69.80;;;;;;5051573;28;20029;-58
2020/12/05 12:35:39;;;;;;;31.38;21.23;;;5.40;69.90;;;;;;5053372;28;20029;-59
2020/12/05 12:38:05;;;;;;;33.58;22.45;;;5.40;69.80;;;;;;5062835;28;20064;-59
2020/12/05 12:40:30;;;;;;;32.80;21.73;;;5.40;70.20;;;;;;5051576;28;20040;-60
2020/12/05 12:42:58;;;;;;;35.65;22.83;;;5.40;70.50;;;;;;5059318;28;20419;-59
2020/12/05 12:45:33;;;;;;;32.40;21.42;;;5.30;70.40;;;;;;5037625;28;20036;-59